sensor_id;sensor_type;location;lat;lon;timestamp;pressure;altitude;pressure_sealevel;temperature
74915;BMP280;63475;45.140;-75.616;2023-03-23T00:00:58;101072.78;;;1.62
74915;BMP280;63475;45.140;-75.616;2023-03-23T00:01:59;101074.66;;;1.61
74915;BMP280;63475;45.140;-75.616;2023-03-23T00:03:00;101066.00;;;1.49
74915;BMP280;63475;45.140;-75.616;2023-03-23T00:04:02;101071.53;;;1.47
74915;BMP280;63475;45.140;-75.616;2023-03-23T00:05:07;101085.84;;;1.62
74915;BMP280;63475;45.140;-75.616;2023-03-23T00:06:08;101078.09;;;1.53
74915;BMP280;63475;45.140;-75.616;2023-03-23T00:07:09;101093.25;;;1.60
74915;BMP280;63475;45.140;-75.616;2023-03-23T00:08:12;101065.03;;;1.53
74915;BMP280;63475;45.140;-75.616;2023-03-23T00:09:15;101058.72;;;1.54
74915;BMP280;63475;45.140;-75.616;2023-03-23T00:10:17;101058.53;;;1.59
74915;BMP280;63475;45.140;-75.616;2023-03-23T00:11:23;101053.00;;;1.61
74915;BMP280;63475;45.140;-75.616;2023-03-23T00:12:28;101066.03;;;1.61
74915;BMP280;63475;45.140;-75.616;2023-03-23T00:13:33;101063.19;;;1.42
74915;BMP280;63475;45.140;-75.616;2023-03-23T00:14:34;101111.72;;;1.55
74915;BMP280;63475;45.140;-75.616;2023-03-23T00:15:54;101094.50;;;1.42
74915;BMP280;63475;45.140;-75.616;2023-03-23T00:16:57;101107.69;;;1.57
74915;BMP280;63475;45.140;-75.616;2023-03-23T00:17:58;101057.38;;;1.36
74915;BMP280;63475;45.140;-75.616;2023-03-23T00:19:07;101078.41;;;1.52
74915;BMP280;63475;45.140;-75.616;2023-03-23T00:20:09;101070.91;;;1.50
74915;BMP280;63475;45.140;-75.616;2023-03-23T00:21:12;101056.44;;;1.41
74915;BMP280;63475;45.140;-75.616;2023-03-23T00:22:14;101062.31;;;1.50
74915;BMP280;63475;45.140;-75.616;2023-03-23T00:23:17;101070.03;;;1.46
74915;BMP280;63475;45.140;-75.616;2023-03-23T00:24:21;101087.44;;;1.42
74915;BMP280;63475;45.140;-75.616;2023-03-23T00:25:22;101107.56;;;1.42
74915;BMP280;63475;45.140;-75.616;2023-03-23T00:26:23;101125.91;;;1.45
74915;BMP280;63475;45.140;-75.616;2023-03-23T00:27:24;101093.34;;;1.30
74915;BMP280;63475;45.140;-75.616;2023-03-23T00:28:26;101083.84;;;1.47
74915;BMP280;63475;45.140;-75.616;2023-03-23T00:29:27;101075.25;;;1.46
74915;BMP280;63475;45.140;-75.616;2023-03-23T00:30:28;101069.91;;;1.43
74915;BMP280;63475;45.140;-75.616;2023-03-23T00:31:31;101064.03;;;1.46
74915;BMP280;63475;45.140;-75.616;2023-03-23T00:32:33;101059.56;;;1.46
74915;BMP280;63475;45.140;-75.616;2023-03-23T00:33:46;101014.16;;;1.26
74915;BMP280;63475;45.140;-75.616;2023-03-23T00:34:47;101039.47;;;1.47
74915;BMP280;63475;45.140;-75.616;2023-03-23T00:35:50;101037.78;;;1.30
74915;BMP280;63475;45.140;-75.616;2023-03-23T00:36:54;101071.78;;;1.42
74915;BMP280;63475;45.140;-75.616;2023-03-23T00:37:57;101061.66;;;1.41
74915;BMP280;63475;45.140;-75.616;2023-03-23T00:38:59;101049.69;;;1.40
74915;BMP280;63475;45.140;-75.616;2023-03-23T00:40:02;101048.16;;;1.38
74915;BMP280;63475;45.140;-75.616;2023-03-23T00:41:09;101028.94;;;1.22
74915;BMP280;63475;45.140;-75.616;2023-03-23T00:42:15;101054.91;;;1.40
74915;BMP280;63475;45.140;-75.616;2023-03-23T00:43:18;101037.19;;;1.24
74915;BMP280;63475;45.140;-75.616;2023-03-23T00:44:20;101075.66;;;1.36
74915;BMP280;63475;45.140;-75.616;2023-03-23T00:45:24;101117.41;;;1.36
74915;BMP280;63475;45.140;-75.616;2023-03-23T00:46:25;101120.97;;;1.31
74915;BMP280;63475;45.140;-75.616;2023-03-23T00:47:27;101113.16;;;1.31
74915;BMP280;63475;45.140;-75.616;2023-03-23T00:48:29;101115.75;;;1.31
74915;BMP280;63475;45.140;-75.616;2023-03-23T00:49:29;101095.09;;;1.18
74915;BMP280;63475;45.140;-75.616;2023-03-23T00:50:31;101113.91;;;1.32
74915;BMP280;63475;45.140;-75.616;2023-03-23T00:51:32;101112.06;;;1.32
74915;BMP280;63475;45.140;-75.616;2023-03-23T00:52:33;101099.34;;;1.31
74915;BMP280;63475;45.140;-75.616;2023-03-23T00:53:34;101055.84;;;1.14
74915;BMP280;63475;45.140;-75.616;2023-03-23T00:54:35;101093.59;;;1.37
74915;BMP280;63475;45.140;-75.616;2023-03-23T00:55:41;101083.53;;;1.27
74915;BMP280;63475;45.140;-75.616;2023-03-23T00:56:42;101088.75;;;1.27
74915;BMP280;63475;45.140;-75.616;2023-03-23T00:57:43;101088.75;;;1.27
74915;BMP280;63475;45.140;-75.616;2023-03-23T00:58:44;101092.44;;;1.26
74915;BMP280;63475;45.140;-75.616;2023-03-23T00:59:45;101104.88;;;1.29
74915;BMP280;63475;45.140;-75.616;2023-03-23T01:00:46;101087.16;;;1.14
74915;BMP280;63475;45.140;-75.616;2023-03-23T01:01:48;101087.50;;;1.13
74915;BMP280;63475;45.140;-75.616;2023-03-23T01:02:49;101099.56;;;1.17
74915;BMP280;63475;45.140;-75.616;2023-03-23T01:03:53;101104.91;;;1.21
74915;BMP280;63475;45.140;-75.616;2023-03-23T01:05:01;101097.81;;;1.09
74915;BMP280;63475;45.140;-75.616;2023-03-23T01:06:09;101108.03;;;1.14
74915;BMP280;63475;45.140;-75.616;2023-03-23T01:07:13;101106.31;;;1.18
74915;BMP280;63475;45.140;-75.616;2023-03-23T01:08:14;101098.47;;;1.18
74915;BMP280;63475;45.140;-75.616;2023-03-23T01:09:16;101101.34;;;1.25
74915;BMP280;63475;45.140;-75.616;2023-03-23T01:10:17;101085.38;;;1.27
74915;BMP280;63475;45.140;-75.616;2023-03-23T01:11:18;101079.53;;;1.30
74915;BMP280;63475;45.140;-75.616;2023-03-23T01:12:19;101070.63;;;1.31
74915;BMP280;63475;45.140;-75.616;2023-03-23T01:13:20;101066.19;;;1.31
74915;BMP280;63475;45.140;-75.616;2023-03-23T01:14:23;101062.47;;;1.32
74915;BMP280;63475;45.140;-75.616;2023-03-23T01:15:24;101062.81;;;1.31
74915;BMP280;63475;45.140;-75.616;2023-03-23T01:16:25;101071.13;;;1.24
74915;BMP280;63475;45.140;-75.616;2023-03-23T01:17:26;101073.09;;;1.27
74915;BMP280;63475;45.140;-75.616;2023-03-23T01:18:27;101078.94;;;1.24
74915;BMP280;63475;45.140;-75.616;2023-03-23T01:19:28;101007.75;;;0.82
74915;BMP280;63475;45.140;-75.616;2023-03-23T01:20:29;101076.66;;;1.23
74915;BMP280;63475;45.140;-75.616;2023-03-23T01:21:32;101097.97;;;1.25
74915;BMP280;63475;45.140;-75.616;2023-03-23T01:22:33;101107.19;;;1.22
74915;BMP280;63475;45.140;-75.616;2023-03-23T01:23:34;101108.28;;;1.21
74915;BMP280;63475;45.140;-75.616;2023-03-23T01:24:35;101086.28;;;1.10
74915;BMP280;63475;45.140;-75.616;2023-03-23T01:25:36;101098.16;;;1.20
74915;BMP280;63475;45.140;-75.616;2023-03-23T01:26:37;101076.19;;;1.09
74915;BMP280;63475;45.140;-75.616;2023-03-23T01:27:39;101082.97;;;1.22
74915;BMP280;63475;45.140;-75.616;2023-03-23T01:28:40;101055.31;;;1.09
74915;BMP280;63475;45.140;-75.616;2023-03-23T01:29:41;101057.06;;;1.17
74915;BMP280;63475;45.140;-75.616;2023-03-23T01:30:42;101060.75;;;1.16
74915;BMP280;63475;45.140;-75.616;2023-03-23T01:31:43;101063.69;;;1.14
74915;BMP280;63475;45.140;-75.616;2023-03-23T01:32:45;101063.25;;;1.12
74915;BMP280;63475;45.140;-75.616;2023-03-23T01:33:47;101062.50;;;1.12
74915;BMP280;63475;45.140;-75.616;2023-03-23T01:34:51;101053.47;;;1.09
74915;BMP280;63475;45.140;-75.616;2023-03-23T01:35:52;101063.69;;;1.14
74915;BMP280;63475;45.140;-75.616;2023-03-23T01:36:53;101066.28;;;1.14
74915;BMP280;63475;45.140;-75.616;2023-03-23T01:37:54;101072.63;;;1.13
74915;BMP280;63475;45.140;-75.616;2023-03-23T01:38:55;101067.13;;;1.06
74915;BMP280;63475;45.140;-75.616;2023-03-23T01:39:58;101077.06;;;1.13
74915;BMP280;63475;45.140;-75.616;2023-03-23T01:40:59;101076.50;;;1.07
74915;BMP280;63475;45.140;-75.616;2023-03-23T01:42:01;101070.63;;;1.10
74915;BMP280;63475;45.140;-75.616;2023-03-23T01:43:02;101054.53;;;1.08
74915;BMP280;63475;45.140;-75.616;2023-03-23T01:45:11;101059.75;;;1.08
74915;BMP280;63475;45.140;-75.616;2023-03-23T01:45:32;101060.06;;;1.07
74915;BMP280;63475;45.140;-75.616;2023-03-23T01:46:35;101054.28;;;1.01
74915;BMP280;63475;45.140;-75.616;2023-03-23T01:47:36;101056.25;;;1.04
74915;BMP280;63475;45.140;-75.616;2023-03-23T01:48:38;101043.41;;;0.99
74915;BMP280;63475;45.140;-75.616;2023-03-23T01:49:43;101049.06;;;1.01
74915;BMP280;63475;45.140;-75.616;2023-03-23T01:50:55;101052.56;;;1.05
74915;BMP280;63475;45.140;-75.616;2023-03-23T01:52:14;101053.66;;;1.04
74915;BMP280;63475;45.140;-75.616;2023-03-23T01:53:18;101034.81;;;0.98
74915;BMP280;63475;45.140;-75.616;2023-03-23T01:54:23;101029.41;;;1.03
74915;BMP280;63475;45.140;-75.616;2023-03-23T01:55:26;101023.31;;;0.99
74915;BMP280;63475;45.140;-75.616;2023-03-23T01:56:41;101022.03;;;1.05
74915;BMP280;63475;45.140;-75.616;2023-03-23T01:57:45;101016.38;;;1.03
74915;BMP280;63475;45.140;-75.616;2023-03-23T01:58:47;101015.59;;;1.03
74915;BMP280;63475;45.140;-75.616;2023-03-23T01:59:51;101010.06;;;1.04
74915;BMP280;63475;45.140;-75.616;2023-03-23T02:00:54;100974.09;;;0.89
74915;BMP280;63475;45.140;-75.616;2023-03-23T02:01:56;100995.63;;;1.07
74915;BMP280;63475;45.140;-75.616;2023-03-23T02:02:57;101000.53;;;1.09
74915;BMP280;63475;45.140;-75.616;2023-03-23T02:03:58;100984.63;;;1.01
74915;BMP280;63475;45.140;-75.616;2023-03-23T02:05:02;100971.66;;;0.93
74915;BMP280;63475;45.140;-75.616;2023-03-23T02:06:05;100991.03;;;1.04
74915;BMP280;63475;45.140;-75.616;2023-03-23T02:07:06;100989.84;;;1.01
74915;BMP280;63475;45.140;-75.616;2023-03-23T02:08:09;100984.94;;;1.00
74915;BMP280;63475;45.140;-75.616;2023-03-23T02:09:12;100981.44;;;0.96
74915;BMP280;63475;45.140;-75.616;2023-03-23T02:10:19;100986.34;;;0.97
74915;BMP280;63475;45.140;-75.616;2023-03-23T02:11:21;100979.28;;;0.98
74915;BMP280;63475;45.140;-75.616;2023-03-23T02:12:23;100975.59;;;0.99
74915;BMP280;63475;45.140;-75.616;2023-03-23T02:13:24;100978.84;;;0.96
74915;BMP280;63475;45.140;-75.616;2023-03-23T02:14:28;100959.72;;;0.83
74915;BMP280;63475;45.140;-75.616;2023-03-23T02:15:44;100976.56;;;0.94
74915;BMP280;63475;45.140;-75.616;2023-03-23T02:17:07;100974.38;;;0.96
74915;BMP280;63475;45.140;-75.616;2023-03-23T02:18:13;100967.50;;;0.92
74915;BMP280;63475;45.140;-75.616;2023-03-23T02:23:26;100965.19;;;0.90
74915;BMP280;63475;45.140;-75.616;2023-03-23T02:26:12;100963.34;;;0.91
74915;BMP280;63475;45.140;-75.616;2023-03-23T02:27:35;100953.69;;;0.91
74915;BMP280;63475;45.140;-75.616;2023-03-23T02:29:06;100956.63;;;0.90
74915;BMP280;63475;45.140;-75.616;2023-03-23T02:30:37;100954.00;;;0.90
74915;BMP280;63475;45.140;-75.616;2023-03-23T02:33:15;100955.28;;;0.84
74915;BMP280;63475;45.140;-75.616;2023-03-23T02:34:31;100950.06;;;0.84
74915;BMP280;63475;45.140;-75.616;2023-03-23T02:35:35;100953.75;;;0.83
74915;BMP280;63475;45.140;-75.616;2023-03-23T02:37:01;100941.03;;;0.81
74915;BMP280;63475;45.140;-75.616;2023-03-23T02:38:22;100932.03;;;0.79
74915;BMP280;63475;45.140;-75.616;2023-03-23T02:39:29;100920.91;;;0.69
74915;BMP280;63475;45.140;-75.616;2023-03-23T02:40:39;100923.78;;;0.77
74915;BMP280;63475;45.140;-75.616;2023-03-23T02:42:05;100913.97;;;0.73
74915;BMP280;63475;45.140;-75.616;2023-03-23T02:43:10;100912.00;;;0.70
74915;BMP280;63475;45.140;-75.616;2023-03-23T02:44:14;100905.47;;;0.64
74915;BMP280;63475;45.140;-75.616;2023-03-23T02:45:16;100878.88;;;0.50
74915;BMP280;63475;45.140;-75.616;2023-03-23T02:46:18;100903.44;;;0.70
74915;BMP280;63475;45.140;-75.616;2023-03-23T02:47:24;100885.25;;;0.61
74915;BMP280;63475;45.140;-75.616;2023-03-23T02:48:29;100900.81;;;0.70
74915;BMP280;63475;45.140;-75.616;2023-03-23T02:49:33;100900.06;;;0.69
74915;BMP280;63475;45.140;-75.616;2023-03-23T02:50:37;100875.97;;;0.52
74915;BMP280;63475;45.140;-75.616;2023-03-23T02:51:39;100899.50;;;0.64
74915;BMP280;63475;45.140;-75.616;2023-03-23T02:52:43;100900.25;;;0.64
74915;BMP280;63475;45.140;-75.616;2023-03-23T02:53:45;100889.44;;;0.54
74915;BMP280;63475;45.140;-75.616;2023-03-23T02:54:48;100897.97;;;0.63
74915;BMP280;63475;45.140;-75.616;2023-03-23T02:55:50;100892.00;;;0.62
74915;BMP280;63475;45.140;-75.616;2023-03-23T02:56:54;100894.59;;;0.62
74915;BMP280;63475;45.140;-75.616;2023-03-23T02:57:56;100890.63;;;0.56
74915;BMP280;63475;45.140;-75.616;2023-03-23T02:58:57;100881.03;;;0.48
74915;BMP280;63475;45.140;-75.616;2023-03-23T02:59:58;100893.41;;;0.60
74915;BMP280;63475;45.140;-75.616;2023-03-23T03:00:59;100901.97;;;0.60
74915;BMP280;63475;45.140;-75.616;2023-03-23T03:02:11;100884.84;;;0.51
74915;BMP280;63475;45.140;-75.616;2023-03-23T03:03:16;100899.38;;;0.60
74915;BMP280;63475;45.140;-75.616;2023-03-23T03:04:21;100892.63;;;0.59
74915;BMP280;63475;45.140;-75.616;2023-03-23T03:08:23;100874.56;;;0.54
74915;BMP280;63475;45.140;-75.616;2023-03-23T03:09:40;100880.22;;;0.56
74915;BMP280;63475;45.140;-75.616;2023-03-23T03:10:58;100871.94;;;0.54
74915;BMP280;63475;45.140;-75.616;2023-03-23T03:12:12;100869.34;;;0.54
74915;BMP280;63475;45.140;-75.616;2023-03-23T03:13:53;100869.97;;;0.51
74915;BMP280;63475;45.140;-75.616;2023-03-23T03:15:06;100869.97;;;0.51
74915;BMP280;63475;45.140;-75.616;2023-03-23T03:16:35;100857.13;;;0.46
74915;BMP280;63475;45.140;-75.616;2023-03-23T03:17:42;100862.78;;;0.48
74915;BMP280;63475;45.140;-75.616;2023-03-23T03:19:50;100869.91;;;0.39
74915;BMP280;63475;45.140;-75.616;2023-03-23T03:21:01;100868.84;;;0.40
74915;BMP280;63475;45.140;-75.616;2023-03-23T03:22:04;100864.06;;;0.42
74915;BMP280;63475;45.140;-75.616;2023-03-23T03:23:05;100845.94;;;0.33
74915;BMP280;63475;45.140;-75.616;2023-03-23T03:24:09;100845.28;;;0.36
74915;BMP280;63475;45.140;-75.616;2023-03-23T03:25:13;100824.41;;;0.24
74915;BMP280;63475;45.140;-75.616;2023-03-23T03:26:16;100843.78;;;0.35
74915;BMP280;63475;45.140;-75.616;2023-03-23T03:27:21;100824.53;;;0.28
74915;BMP280;63475;45.140;-75.616;2023-03-23T03:28:24;100848.31;;;0.38
74915;BMP280;63475;45.140;-75.616;2023-03-23T03:29:32;100846.47;;;0.39
74915;BMP280;63475;45.140;-75.616;2023-03-23T03:30:35;100848.31;;;0.38
74915;BMP280;63475;45.140;-75.616;2023-03-23T03:31:39;100846.38;;;0.35
74915;BMP280;63475;45.140;-75.616;2023-03-23T03:32:44;100842.69;;;0.36
74915;BMP280;63475;45.140;-75.616;2023-03-23T03:33:47;100847.13;;;0.36
74915;BMP280;63475;45.140;-75.616;2023-03-23T03:34:48;100835.06;;;0.31
74915;BMP280;63475;45.140;-75.616;2023-03-23T03:35:54;100848.97;;;0.35
74915;BMP280;63475;45.140;-75.616;2023-03-23T03:36:57;100852.34;;;0.36
74915;BMP280;63475;45.140;-75.616;2023-03-23T03:38:06;100845.81;;;0.30
74915;BMP280;63475;45.140;-75.616;2023-03-23T03:39:09;100836.91;;;0.31
74915;BMP280;63475;45.140;-75.616;2023-03-23T03:40:14;100846.38;;;0.35
74915;BMP280;63475;45.140;-75.616;2023-03-23T03:41:18;100839.63;;;0.34
74915;BMP280;63475;45.140;-75.616;2023-03-23T03:42:19;100843.19;;;0.30
74915;BMP280;63475;45.140;-75.616;2023-03-23T03:43:20;100836.47;;;0.29
74915;BMP280;63475;45.140;-75.616;2023-03-23T03:44:21;100838.44;;;0.32
74915;BMP280;63475;45.140;-75.616;2023-03-23T03:45:22;100843.66;;;0.32
74915;BMP280;63475;45.140;-75.616;2023-03-23T03:46:23;100840.59;;;0.30
74915;BMP280;63475;45.140;-75.616;2023-03-23T03:47:27;100823.97;;;0.14
74915;BMP280;63475;45.140;-75.616;2023-03-23T03:48:28;100837.88;;;0.26
74915;BMP280;63475;45.140;-75.616;2023-03-23T03:49:29;100743.31;;;-0.37
74915;BMP280;63475;45.140;-75.616;2023-03-23T03:50:30;100845.81;;;0.30
74915;BMP280;63475;45.140;-75.616;2023-03-23T03:51:32;100829.28;;;0.26
74915;BMP280;63475;45.140;-75.616;2023-03-23T03:52:34;100826.03;;;0.29
74915;BMP280;63475;45.140;-75.616;2023-03-23T03:53:35;100826.81;;;0.29
74915;BMP280;63475;45.140;-75.616;2023-03-23T03:54:36;100824.06;;;0.26
74915;BMP280;63475;45.140;-75.616;2023-03-23T03:55:37;100818.88;;;0.26
74915;BMP280;63475;45.140;-75.616;2023-03-23T03:56:38;100812.91;;;0.25
74915;BMP280;63475;45.140;-75.616;2023-03-23T03:57:42;100812.56;;;0.27
74915;BMP280;63475;45.140;-75.616;2023-03-23T03:58:44;100806.59;;;0.26
74915;BMP280;63475;45.140;-75.616;2023-03-23T03:59:45;100777.09;;;0.14
74915;BMP280;63475;45.140;-75.616;2023-03-23T04:00:49;100775.72;;;0.16
74915;BMP280;63475;45.140;-75.616;2023-03-23T04:01:50;100789.88;;;0.27
74915;BMP280;63475;45.140;-75.616;2023-03-23T04:02:54;100770.19;;;0.18
74915;BMP280;63475;45.140;-75.616;2023-03-23T04:03:55;100774.13;;;0.24
74915;BMP280;63475;45.140;-75.616;2023-03-23T04:04:56;100746.81;;;0.09
74915;BMP280;63475;45.140;-75.616;2023-03-23T04:05:58;100769.38;;;0.26
74915;BMP280;63475;45.140;-75.616;2023-03-23T04:07:00;100749.75;;;0.07
74915;BMP280;63475;45.140;-75.616;2023-03-23T04:08:03;100752.34;;;0.07
74915;BMP280;63475;45.140;-75.616;2023-03-23T04:09:05;100766.94;;;0.21
74915;BMP280;63475;45.140;-75.616;2023-03-23T04:10:07;100761.41;;;0.22
74915;BMP280;63475;45.140;-75.616;2023-03-23T04:11:13;100761.16;;;0.15
74915;BMP280;63475;45.140;-75.616;2023-03-23T04:12:15;100755.00;;;0.20
74915;BMP280;63475;45.140;-75.616;2023-03-23T04:13:16;100755.00;;;0.20
74915;BMP280;63475;45.140;-75.616;2023-03-23T04:14:17;100757.47;;;0.16
74915;BMP280;63475;45.140;-75.616;2023-03-23T04:15:18;100758.25;;;0.17
74915;BMP280;63475;45.140;-75.616;2023-03-23T04:16:19;100758.69;;;0.19
74915;BMP280;63475;45.140;-75.616;2023-03-23T04:17:21;100755.63;;;0.17
74915;BMP280;63475;45.140;-75.616;2023-03-23T04:18:22;100755.50;;;0.13
74915;BMP280;63475;45.140;-75.616;2023-03-23T04:19:25;100744.53;;;0.07
74915;BMP280;63475;45.140;-75.616;2023-03-23T04:20:28;100738.13;;;0.05
74915;BMP280;63475;45.140;-75.616;2023-03-23T04:21:29;100757.34;;;0.13
74915;BMP280;63475;45.140;-75.616;2023-03-23T04:22:30;100753.03;;;0.17
74915;BMP280;63475;45.140;-75.616;2023-03-23T04:23:31;100756.41;;;0.17
74915;BMP280;63475;45.140;-75.616;2023-03-23T04:24:33;100759.75;;;0.18
74915;BMP280;63475;45.140;-75.616;2023-03-23T04:25:36;100759.75;;;0.18
74915;BMP280;63475;45.140;-75.616;2023-03-23T04:26:37;100772.47;;;0.19
74915;BMP280;63475;45.140;-75.616;2023-03-23T04:27:40;100725.94;;;-0.03
74915;BMP280;63475;45.140;-75.616;2023-03-23T04:28:43;100754.22;;;0.19
74915;BMP280;63475;45.140;-75.616;2023-03-23T04:29:44;100758.34;;;0.20
74915;BMP280;63475;45.140;-75.616;2023-03-23T04:30:51;100751.63;;;0.19
74915;BMP280;63475;45.140;-75.616;2023-03-23T04:31:55;100752.72;;;0.18
74915;BMP280;63475;45.140;-75.616;2023-03-23T04:32:56;100760.41;;;0.15
74915;BMP280;63475;45.140;-75.616;2023-03-23T04:33:57;100777.66;;;0.19
74915;BMP280;63475;45.140;-75.616;2023-03-23T04:35:00;100760.84;;;0.17
74915;BMP280;63475;45.140;-75.616;2023-03-23T04:36:01;100760.31;;;0.23
74915;BMP280;63475;45.140;-75.616;2023-03-23T04:37:02;100723.44;;;0.00
74915;BMP280;63475;45.140;-75.616;2023-03-23T04:38:03;100730.75;;;0.07
74915;BMP280;63475;45.140;-75.616;2023-03-23T04:39:05;100745.66;;;0.19
74915;BMP280;63475;45.140;-75.616;2023-03-23T04:40:11;100735.94;;;0.07
74915;BMP280;63475;45.140;-75.616;2023-03-23T04:41:14;100733.47;;;0.11
74915;BMP280;63475;45.140;-75.616;2023-03-23T04:42:15;100758.69;;;0.19
74915;BMP280;63475;45.140;-75.616;2023-03-23T04:43:17;100740.28;;;0.03
74915;BMP280;63475;45.140;-75.616;2023-03-23T04:44:21;100754.88;;;0.16
74915;BMP280;63475;45.140;-75.616;2023-03-23T04:45:22;100722.25;;;-0.02
74915;BMP280;63475;45.140;-75.616;2023-03-23T04:46:25;100740.88;;;0.21
74915;BMP280;63475;45.140;-75.616;2023-03-23T04:47:32;100730.16;;;0.22
74915;BMP280;63475;45.140;-75.616;2023-03-23T04:48:34;100734.59;;;0.22
74915;BMP280;63475;45.140;-75.616;2023-03-23T04:49:35;100730.91;;;0.23
74915;BMP280;63475;45.140;-75.616;2023-03-23T04:50:36;100728.00;;;0.24
74915;BMP280;63475;45.140;-75.616;2023-03-23T04:51:37;100726.16;;;0.25
74915;BMP280;63475;45.140;-75.616;2023-03-23T04:52:39;100709.50;;;0.17
74915;BMP280;63475;45.140;-75.616;2023-03-23T04:53:45;100702.47;;;0.18
74915;BMP280;63475;45.140;-75.616;2023-03-23T04:54:46;100693.22;;;0.08
74915;BMP280;63475;45.140;-75.616;2023-03-23T04:55:48;100712.81;;;0.26
74915;BMP280;63475;45.140;-75.616;2023-03-23T04:56:49;100711.47;;;0.20
74915;BMP280;63475;45.140;-75.616;2023-03-23T04:57:50;100715.13;;;0.28
74915;BMP280;63475;45.140;-75.616;2023-03-23T04:58:51;100718.16;;;0.30
74915;BMP280;63475;45.140;-75.616;2023-03-23T04:59:52;100700.41;;;0.23
74915;BMP280;63475;45.140;-75.616;2023-03-23T05:00:54;100680.31;;;0.12
74915;BMP280;63475;45.140;-75.616;2023-03-23T05:01:55;100689.06;;;0.28
74915;BMP280;63475;45.140;-75.616;2023-03-23T05:02:56;100682.44;;;0.30
74915;BMP280;63475;45.140;-75.616;2023-03-23T05:03:57;100669.16;;;0.23
74915;BMP280;63475;45.140;-75.616;2023-03-23T05:04:58;100680.16;;;0.29
74915;BMP280;63475;45.140;-75.616;2023-03-23T05:06:02;100667.78;;;0.26
74915;BMP280;63475;45.140;-75.616;2023-03-23T05:07:03;100678.66;;;0.28
74915;BMP280;63475;45.140;-75.616;2023-03-23T05:08:04;100661.13;;;0.16
74915;BMP280;63475;45.140;-75.616;2023-03-23T05:09:05;100679.41;;;0.28
74915;BMP280;63475;45.140;-75.616;2023-03-23T05:10:08;100675.72;;;0.29
74915;BMP280;63475;45.140;-75.616;2023-03-23T05:11:10;100674.19;;;0.28
74915;BMP280;63475;45.140;-75.616;2023-03-23T05:12:11;100655.78;;;0.13
74915;BMP280;63475;45.140;-75.616;2023-03-23T05:13:12;100675.28;;;0.27
74915;BMP280;63475;45.140;-75.616;2023-03-23T05:14:14;100654.38;;;0.15
74915;BMP280;63475;45.140;-75.616;2023-03-23T05:15:16;100670.81;;;0.28
74915;BMP280;63475;45.140;-75.616;2023-03-23T05:16:17;100634.19;;;0.12
74915;BMP280;63475;45.140;-75.616;2023-03-23T05:17:19;100654.00;;;0.25
74915;BMP280;63475;45.140;-75.616;2023-03-23T05:18:21;100590.91;;;-0.13
74915;BMP280;63475;45.140;-75.616;2023-03-23T05:19:22;100634.63;;;0.14
74915;BMP280;63475;45.140;-75.616;2023-03-23T05:20:26;100660.09;;;0.29
74915;BMP280;63475;45.140;-75.616;2023-03-23T05:21:28;100659.31;;;0.29
74915;BMP280;63475;45.140;-75.616;2023-03-23T05:22:30;100640.84;;;0.22
74915;BMP280;63475;45.140;-75.616;2023-03-23T05:23:34;100664.66;;;0.32
74915;BMP280;63475;45.140;-75.616;2023-03-23T05:24:36;100662.03;;;0.32
74915;BMP280;63475;45.140;-75.616;2023-03-23T05:25:37;100664.97;;;0.31
74915;BMP280;63475;45.140;-75.616;2023-03-23T05:26:40;100656.94;;;0.24
74915;BMP280;63475;45.140;-75.616;2023-03-23T05:27:42;100641.78;;;0.17
74915;BMP280;63475;45.140;-75.616;2023-03-23T05:28:43;100651.31;;;0.34
74915;BMP280;63475;45.140;-75.616;2023-03-23T05:29:46;100659.44;;;0.32
74915;BMP280;63475;45.140;-75.616;2023-03-23T05:30:50;100655.75;;;0.33
74915;BMP280;63475;45.140;-75.616;2023-03-23T05:31:52;100658.78;;;0.35
74915;BMP280;63475;45.140;-75.616;2023-03-23T05:32:56;100656.94;;;0.36
74915;BMP280;63475;45.140;-75.616;2023-03-23T05:33:57;100620.09;;;0.13
74915;BMP280;63475;45.140;-75.616;2023-03-23T05:34:59;100644.69;;;0.36
74915;BMP280;63475;45.140;-75.616;2023-03-23T05:36:01;100648.38;;;0.35
74915;BMP280;63475;45.140;-75.616;2023-03-23T05:37:04;100642.41;;;0.35
74915;BMP280;63475;45.140;-75.616;2023-03-23T05:38:05;100632.41;;;0.25
74915;BMP280;63475;45.140;-75.616;2023-03-23T05:39:06;100630.22;;;0.27
74915;BMP280;63475;45.140;-75.616;2023-03-23T05:40:09;100657.03;;;0.39
74915;BMP280;63475;45.140;-75.616;2023-03-23T05:41:12;100655.19;;;0.40
74915;BMP280;63475;45.140;-75.616;2023-03-23T05:42:13;100645.00;;;0.35
74915;BMP280;63475;45.140;-75.616;2023-03-23T05:43:14;100642.09;;;0.36
74915;BMP280;63475;45.140;-75.616;2023-03-23T05:44:16;100649.13;;;0.36
74915;BMP280;63475;45.140;-75.616;2023-03-23T05:45:17;100643.91;;;0.36
74915;BMP280;63475;45.140;-75.616;2023-03-23T05:46:18;100639.47;;;0.36
74915;BMP280;63475;45.140;-75.616;2023-03-23T05:47:19;100637.94;;;0.35
74915;BMP280;63475;45.140;-75.616;2023-03-23T05:48:20;100643.25;;;0.39
74915;BMP280;63475;45.140;-75.616;2023-03-23T05:49:22;100640.63;;;0.39
74915;BMP280;63475;45.140;-75.616;2023-03-23T05:50:25;100629.13;;;0.40
74915;BMP280;63475;45.140;-75.616;2023-03-23T05:51:26;100627.63;;;0.39
74915;BMP280;63475;45.140;-75.616;2023-03-23T05:52:28;100629.47;;;0.38
74915;BMP280;63475;45.140;-75.616;2023-03-23T05:53:29;100624.16;;;0.35
74915;BMP280;63475;45.140;-75.616;2023-03-23T05:54:31;100617.44;;;0.34
74915;BMP280;63475;45.140;-75.616;2023-03-23T05:55:32;100620.88;;;0.38
74915;BMP280;63475;45.140;-75.616;2023-03-23T05:56:34;100603.44;;;0.26
74915;BMP280;63475;45.140;-75.616;2023-03-23T05:57:36;100610.47;;;0.38
74915;BMP280;63475;45.140;-75.616;2023-03-23T05:58:37;100616.97;;;0.44
74915;BMP280;63475;45.140;-75.616;2023-03-23T05:59:38;100615.91;;;0.45
74915;BMP280;63475;45.140;-75.616;2023-03-23T06:00:39;100602.88;;;0.45
74915;BMP280;63475;45.140;-75.616;2023-03-23T06:01:41;100607.00;;;0.46
74915;BMP280;63475;45.140;-75.616;2023-03-23T06:02:42;100608.09;;;0.45
74915;BMP280;63475;45.140;-75.616;2023-03-23T06:03:44;100591.16;;;0.27
74915;BMP280;63475;45.140;-75.616;2023-03-23T06:04:45;100605.78;;;0.44
74915;BMP280;63475;45.140;-75.616;2023-03-23T06:05:49;100602.44;;;0.43
74915;BMP280;63475;45.140;-75.616;2023-03-23T06:06:51;100601.69;;;0.42
74915;BMP280;63475;45.140;-75.616;2023-03-23T06:07:52;100597.97;;;0.44